createdAt,value
2018-10-07T00:01:36.085Z,99837.38
2018-10-07T00:04:03.775Z,99835.45
2018-10-07T00:06:31.456Z,99840.12
2018-10-07T00:08:59.170Z,99845.30
2018-10-07T00:11:26.873Z,99838.74
2018-10-07T00:13:54.578Z,99840.75
2018-10-07T00:16:22.301Z,99839.65
2018-10-07T00:18:49.994Z,99845.11
2018-10-07T00:21:17.700Z,99845.05
2018-10-07T00:23:45.404Z,99853.02
2018-10-07T00:26:13.072Z,99856.55
2018-10-07T00:28:40.762Z,99860.38
2018-10-07T00:31:08.488Z,99860.08
2018-10-07T00:33:36.141Z,99864.73
2018-10-07T00:36:03.884Z,99856.55
2018-10-07T00:38:31.616Z,99857.06
2018-10-07T00:40:59.377Z,99865.84
2018-10-07T00:43:27.149Z,99861.17
2018-10-07T00:45:54.805Z,99864.47
2018-10-07T00:48:26.998Z,99869.91
2018-10-07T00:50:54.825Z,99869.08
2018-10-07T00:53:22.541Z,99870.19
2018-10-07T00:55:50.329Z,99871.80
2018-10-07T00:58:18.022Z,99864.42
2018-10-07T01:00:45.812Z,99874.84
2018-10-07T01:03:13.492Z,99873.75
2018-10-07T01:05:41.280Z,99870.65
2018-10-07T01:08:08.936Z,99878.05
2018-10-07T01:10:36.641Z,99880.80
2018-10-07T01:13:04.337Z,99880.16
2018-10-07T01:15:31.969Z,99881.20
2018-10-07T01:17:59.808Z,99883.72
2018-10-07T01:20:27.555Z,99877.69
2018-10-07T01:22:55.285Z,99879.61
2018-10-07T01:25:23.032Z,99876.33
2018-10-07T01:27:50.748Z,99882.58
2018-10-07T01:30:21.553Z,99879.34
2018-10-07T01:32:51.036Z,99879.56
2018-10-07T01:35:18.905Z,99888.01
2018-10-07T01:37:46.779Z,99895.34
2018-10-07T01:40:14.530Z,99895.27
2018-10-07T01:42:42.178Z,99897.44
2018-10-07T01:45:09.897Z,99899.64
2018-10-07T01:47:37.653Z,99892.96
2018-10-07T01:50:05.657Z,99897.67
2018-10-07T01:52:33.309Z,99886.94
2018-10-07T01:55:01.032Z,99895.63
2018-10-07T01:57:28.681Z,99891.54
2018-10-07T01:59:56.365Z,99890.17
2018-10-07T02:02:24.097Z,99891.69
2018-10-07T02:04:51.767Z,99893.23
2018-10-07T02:07:19.405Z,99905.23
2018-10-07T02:09:47.201Z,99898.67
2018-10-07T02:12:14.858Z,99898.67
2018-10-07T02:14:42.481Z,99902.61
2018-10-07T02:17:10.208Z,99901.24
2018-10-07T02:19:37.866Z,99901.39
2018-10-07T02:22:05.623Z,99898.30
2018-10-07T02:24:33.313Z,99898.38
2018-10-07T02:27:01.268Z,99901.11
2018-10-07T02:29:28.961Z,99901.05
2018-10-07T02:31:56.657Z,99908.42
2018-10-07T02:34:24.326Z,99907.55
2018-10-07T02:36:52.122Z,99906.94
2018-10-07T02:39:19.869Z,99908.57
2018-10-07T02:41:47.616Z,99918.42
2018-10-07T02:44:15.353Z,99920.24
2018-10-07T02:46:43.160Z,99924.63
2018-10-07T02:49:10.842Z,99921.28
2018-10-07T02:51:38.665Z,99920.70
2018-10-07T02:54:06.436Z,99921.80
2018-10-07T02:56:34.228Z,99920.16
2018-10-07T02:59:02.202Z,99912.81
2018-10-07T03:01:29.975Z,99918.53
2018-10-07T03:03:57.733Z,99918.73
2018-10-07T03:06:25.461Z,99920.34
2018-10-07T03:08:53.207Z,99922.83
2018-10-07T03:11:20.922Z,99922.19
2018-10-07T03:13:50.412Z,99917.80
2018-10-07T03:16:18.120Z,99918.65
2018-10-07T03:18:45.767Z,99915.89
2018-10-07T03:21:13.558Z,99917.52
2018-10-07T03:23:41.225Z,99924.09
2018-10-07T03:26:08.953Z,99927.38
2018-10-07T03:28:36.644Z,99931.41
2018-10-07T03:31:04.359Z,99927.66
2018-10-07T03:33:32.049Z,99936.67
2018-10-07T03:35:59.909Z,99936.88
2018-10-07T03:38:27.584Z,99956.85
2018-10-07T03:40:55.545Z,99972.36
2018-10-07T03:43:23.321Z,99970.45
2018-10-07T03:45:50.991Z,99975.02
2018-10-07T03:48:18.681Z,99981.09
2018-10-07T03:50:46.381Z,99982.36
2018-10-07T03:53:14.098Z,99988.42
2018-10-07T03:55:41.764Z,99974.98
2018-10-07T03:58:09.468Z,99978.80
2018-10-07T04:00:37.200Z,99984.50
2018-10-07T04:03:04.973Z,99979.81
2018-10-07T04:05:32.677Z,99973.25
2018-10-07T04:08:00.406Z,99966.88
2018-10-07T04:10:28.029Z,99977.56
2018-10-07T04:12:55.764Z,99984.55
2018-10-07T04:15:23.482Z,99974.06
2018-10-07T04:17:51.256Z,99982.04
2018-10-07T04:20:18.916Z,99992.59
2018-10-07T04:22:46.576Z,100011.63
2018-10-07T04:25:14.299Z,100011.55
2018-10-07T04:27:41.981Z,100014.63
2018-10-07T04:30:09.698Z,100011.29
2018-10-07T04:32:37.396Z,100009.44
2018-10-07T04:35:05.137Z,100015.66
2018-10-07T04:37:32.898Z,100015.91
2018-10-07T04:40:00.657Z,100027.16
2018-10-07T04:42:28.253Z,100028.70
2018-10-07T04:44:55.973Z,100023.06
2018-10-07T04:47:23.648Z,100033.66
2018-10-07T04:49:51.381Z,100023.06
2018-10-07T04:52:19.085Z,100019.53
2018-10-07T04:54:46.752Z,100035.02
2018-10-07T04:57:14.473Z,100033.69
2018-10-07T04:59:42.249Z,100033.91
2018-10-07T05:02:09.909Z,100028.59
2018-10-07T05:04:37.656Z,100033.78
2018-10-07T05:07:05.635Z,100044.78
2018-10-07T05:09:33.913Z,100048.40
2018-10-07T05:12:04.693Z,100055.14
2018-10-07T05:14:32.485Z,100059.58
2018-10-07T05:17:00.577Z,100059.78
2018-10-07T05:19:28.342Z,100069.85
2018-10-07T05:21:56.164Z,100068.16
2018-10-07T05:24:23.916Z,100074.92
2018-10-07T05:26:51.654Z,100089.28
2018-10-07T05:29:19.373Z,100088.06
2018-10-07T05:31:47.020Z,100085.91
2018-10-07T05:34:14.693Z,100082.45
2018-10-07T05:36:42.456Z,100084.83
2018-10-07T05:39:11.245Z,100097.63
2018-10-07T05:41:38.961Z,100103.70
2018-10-07T05:44:06.710Z,100105.17
2018-10-07T05:46:34.396Z,100107.33
2018-10-07T05:49:02.092Z,100115.06
2018-10-07T05:51:29.842Z,100113.62
2018-10-07T05:53:57.592Z,100108.37
2018-10-07T05:56:25.351Z,100114.92
2018-10-07T05:58:55.525Z,100128.36
2018-10-07T06:01:28.769Z,100144.83
2018-10-07T06:04:18.241Z,100154.92
2018-10-07T06:06:46.360Z,100163.87
2018-10-07T06:09:33.179Z,100164.64
2018-10-07T06:12:08.447Z,100169.38
2018-10-07T06:14:54.172Z,100178.16
2018-10-07T06:17:21.823Z,100180.21
2018-10-07T06:19:49.525Z,100177.84
2018-10-07T06:22:17.286Z,100185.89
2018-10-07T06:24:49.818Z,100184.98
2018-10-07T06:27:17.636Z,100188.79
2018-10-07T06:29:45.470Z,100184.39
2018-10-07T06:32:13.233Z,100184.87
2018-10-07T06:34:40.974Z,100195.94
2018-10-07T06:37:08.693Z,100196.86
2018-10-07T06:39:36.501Z,100208.47
2018-10-07T06:42:04.249Z,100218.00
2018-10-07T06:44:31.979Z,100218.01
2018-10-07T06:47:02.877Z,100214.66
2018-10-07T06:49:30.601Z,100225.98
2018-10-07T06:51:58.433Z,100230.95
2018-10-07T06:54:26.174Z,100231.98
2018-10-07T06:56:54.009Z,100231.48
2018-10-07T06:59:21.800Z,100232.08
2018-10-07T07:01:49.577Z,100227.72
2018-10-07T07:04:17.413Z,100234.16
2018-10-07T07:06:45.242Z,100244.30
2018-10-07T07:09:12.877Z,100244.02
2018-10-07T07:11:40.645Z,100244.43
2018-10-07T07:14:08.504Z,100243.41
2018-10-07T07:16:36.444Z,100253.95
2018-10-07T07:19:04.189Z,100253.77
2018-10-07T07:21:31.913Z,100258.22
2018-10-07T07:24:01.117Z,100255.84
2018-10-07T07:26:28.802Z,100261.67
2018-10-07T07:28:56.500Z,100263.13
2018-10-07T07:31:24.565Z,100267.34
2018-10-07T07:33:52.503Z,100261.61
2018-10-07T07:36:20.217Z,100269.66
2018-10-07T07:38:47.933Z,100274.13
2018-10-07T07:41:15.701Z,100260.71
2018-10-07T07:43:43.321Z,100265.97
2018-10-07T07:46:11.552Z,100274.58
2018-10-07T07:48:39.258Z,100277.93
2018-10-07T07:51:09.697Z,100275.22
2018-10-07T07:53:38.078Z,100284.89
2018-10-07T07:56:05.993Z,100287.93
2018-10-07T07:58:33.705Z,100286.27
2018-10-07T08:01:01.497Z,100294.30
2018-10-07T08:03:29.265Z,100293.45
2018-10-07T08:05:57.003Z,100301.74
2018-10-07T08:08:24.910Z,100301.48
2018-10-07T08:10:52.665Z,100310.05
2018-10-07T08:13:20.449Z,100315.25
2018-10-07T08:15:48.140Z,100323.48
2018-10-07T08:18:15.857Z,100318.48
2018-10-07T08:20:43.606Z,100322.30
2018-10-07T08:23:11.329Z,100331.37
2018-10-07T08:25:39.017Z,100329.74
2018-10-07T08:28:07.657Z,100328.85
2018-10-07T08:30:35.382Z,100337.39
2018-10-07T08:33:04.628Z,100347.33
2018-10-07T08:35:32.324Z,100342.63
2018-10-07T08:38:00.018Z,100348.66
2018-10-07T08:40:27.765Z,100343.44
2018-10-07T08:42:55.413Z,100351.96
2018-10-07T08:45:23.070Z,100360.80
2018-10-07T08:47:50.764Z,100363.28
2018-10-07T08:50:18.485Z,100363.28
2018-10-07T08:52:46.201Z,100370.45
2018-10-07T08:55:13.928Z,100375.45
2018-10-07T08:57:41.613Z,100374.86
2018-10-07T09:00:09.358Z,100373.78
2018-10-07T09:02:37.129Z,100379.55
2018-10-07T09:05:04.876Z,100383.97
2018-10-07T09:07:32.581Z,100386.98
2018-10-07T09:10:00.181Z,100385.34
2018-10-07T09:12:27.925Z,100388.66
2018-10-07T09:14:55.617Z,100396.08
2018-10-07T09:17:23.381Z,100394.97
2018-10-07T09:19:51.073Z,100398.54
2018-10-07T09:22:18.736Z,100401.27
2018-10-07T09:24:46.368Z,100404.58
2018-10-07T09:27:14.173Z,100408.62
2018-10-07T09:29:41.853Z,100410.86
2018-10-07T09:32:09.649Z,100424.39
2018-10-07T09:34:37.330Z,100424.85
2018-10-07T09:37:05.462Z,100425.89
2018-10-07T09:39:33.227Z,100437.33
2018-10-07T09:42:00.933Z,100451.64
2018-10-07T09:44:28.660Z,100450.41
2018-10-07T09:46:56.365Z,100463.96
2018-10-07T09:49:24.124Z,100460.44
2018-10-07T09:51:51.820Z,100463.23
2018-10-07T09:54:19.529Z,100460.80
2018-10-07T09:56:47.249Z,100462.19
2018-10-07T09:59:14.988Z,100463.56
2018-10-07T10:01:42.689Z,100469.11
2018-10-07T10:04:10.461Z,100471.33
2018-10-07T10:06:38.076Z,100471.70
2018-10-07T10:09:07.577Z,100479.59
2018-10-07T10:11:35.288Z,100483.65
2018-10-07T10:14:03.128Z,100490.41
2018-10-07T10:16:42.928Z,100489.23
2018-10-07T10:20:17.431Z,100482.98
2018-10-07T10:22:54.724Z,100476.70
2018-10-07T10:25:35.832Z,100484.00
2018-10-07T10:28:17.924Z,100488.52
2018-10-07T10:31:00.781Z,100483.30
2018-10-07T10:33:31.968Z,100482.50
2018-10-07T10:36:19.244Z,100480.61
2018-10-07T10:39:09.104Z,100478.47
2018-10-07T10:41:48.876Z,100482.39
2018-10-07T10:44:21.820Z,100485.16
2018-10-07T10:47:02.540Z,100484.91
2018-10-07T10:49:56.461Z,100479.77
2018-10-07T10:52:30.226Z,100481.48
2018-10-07T10:55:10.570Z,100480.84
2018-10-07T10:57:49.980Z,100484.75
2018-10-07T11:00:24.664Z,100482.91
2018-10-07T11:03:37.096Z,100487.96
2018-10-07T11:06:28.681Z,100488.08
2018-10-07T11:09:07.677Z,100494.52
2018-10-07T11:11:55.623Z,100486.38
2018-10-07T11:15:41.772Z,100484.79
2018-10-07T11:19:23.828Z,100487.37
2018-10-07T11:24:08.740Z,100480.30
2018-10-07T11:26:47.029Z,100472.52
2018-10-07T11:29:30.749Z,100469.16
2018-10-07T11:32:17.376Z,100473.25
2018-10-07T11:35:01.925Z,100482.16
2018-10-07T11:38:18.140Z,100482.47
2018-10-07T11:41:00.812Z,100478.16
2018-10-07T11:43:42.932Z,100486.08
2018-10-07T11:46:35.521Z,100489.61
2018-10-07T11:49:11.317Z,100491.64
2018-10-07T11:51:54.364Z,100499.51
2018-10-07T11:54:40.284Z,100495.02
2018-10-07T11:57:07.945Z,100487.47
2018-10-07T11:59:35.709Z,100483.31
2018-10-07T12:02:03.467Z,100487.55
2018-10-07T12:04:31.141Z,100481.52
2018-10-07T12:06:58.877Z,100486.25
2018-10-07T12:09:26.558Z,100490.81
2018-10-07T12:11:58.008Z,100485.52
2018-10-07T12:14:25.809Z,100486.27
2018-10-07T12:16:53.589Z,100489.50
2018-10-07T12:19:21.261Z,100498.25
2018-10-07T12:21:49.020Z,100499.14
2018-10-07T12:24:16.678Z,100492.48
2018-10-07T12:26:44.345Z,100501.14
2018-10-07T12:29:12.072Z,100510.30
2018-10-07T12:31:39.739Z,100502.83
2018-10-07T12:34:07.461Z,100510.67
2018-10-07T12:36:35.126Z,100516.12
2018-10-07T12:39:03.033Z,100503.78
2018-10-07T12:41:30.772Z,100521.62
2018-10-07T12:43:58.454Z,100531.05
2018-10-07T12:46:26.153Z,100535.28
2018-10-07T12:48:54.106Z,100534.38
2018-10-07T12:51:21.872Z,100536.28
2018-10-07T12:53:49.603Z,100536.85
2018-10-07T12:56:17.289Z,100540.67
2018-10-07T12:58:45.105Z,100549.21
2018-10-07T13:01:13.136Z,100558.00
2018-10-07T13:03:40.763Z,100561.33
2018-10-07T13:06:08.475Z,100568.16
2018-10-07T13:08:36.683Z,100568.80
2018-10-07T13:11:04.495Z,100577.19
2018-10-07T13:13:32.338Z,100573.77
2018-10-07T13:16:00.057Z,100578.94
2018-10-07T13:18:27.809Z,100568.61
2018-10-07T13:20:55.557Z,100569.25
2018-10-07T13:23:23.500Z,100567.30
2018-10-07T13:25:51.341Z,100580.51
2018-10-07T13:28:19.040Z,100582.09
2018-10-07T13:30:46.647Z,100584.03
2018-10-07T13:33:14.337Z,100590.21
2018-10-07T13:35:42.011Z,100588.49
2018-10-07T13:38:14.029Z,100601.74
2018-10-07T13:40:41.856Z,100600.98
2018-10-07T13:43:09.574Z,100601.24
2018-10-07T13:45:37.292Z,100610.20
2018-10-07T13:48:04.981Z,100605.19
2018-10-07T13:50:32.657Z,100609.36
2018-10-07T13:53:00.296Z,100610.84
2018-10-07T13:55:28.025Z,100612.47
2018-10-07T13:57:55.721Z,100617.67
2018-10-07T14:00:24.528Z,100619.34
2018-10-07T14:02:52.358Z,100618.81
2018-10-07T14:05:20.082Z,100623.23
2018-10-07T14:07:47.784Z,100637.21
2018-10-07T14:10:15.480Z,100631.39
2018-10-07T14:12:43.169Z,100625.56
2018-10-07T14:15:10.825Z,100642.11
2018-10-07T14:17:38.456Z,100650.26
2018-10-07T14:20:06.317Z,100643.34
2018-10-07T14:22:33.997Z,100651.63
2018-10-07T14:25:01.725Z,100661.89
2018-10-07T14:27:29.457Z,100658.33
2018-10-07T14:29:57.177Z,100659.77
2018-10-07T14:32:24.940Z,100657.00
2018-10-07T14:34:52.646Z,100663.91
2018-10-07T14:37:20.445Z,100659.78
2018-10-07T14:39:48.118Z,100660.02
2018-10-07T14:42:15.884Z,100666.65
2018-10-07T14:44:43.612Z,100663.02
2018-10-07T14:47:11.297Z,100671.31
2018-10-07T14:49:38.980Z,100674.09
2018-10-07T14:52:06.725Z,100671.64
2018-10-07T14:54:34.381Z,100677.76
2018-10-07T14:57:02.064Z,100680.23
2018-10-07T14:59:29.785Z,100675.20
2018-10-07T15:01:57.517Z,100679.66
2018-10-07T15:04:25.241Z,100680.79
2018-10-07T15:06:52.888Z,100679.06
2018-10-07T15:09:20.557Z,100683.55
2018-10-07T15:11:48.265Z,100687.38
2018-10-07T15:14:15.930Z,100683.47
2018-10-07T15:16:43.916Z,100681.24
2018-10-07T15:19:11.618Z,100677.06
2018-10-07T15:21:39.318Z,100676.27
2018-10-07T15:24:07.042Z,100670.68
2018-10-07T15:26:34.745Z,100669.00
2018-10-07T15:29:02.477Z,100662.12
2018-10-07T15:31:30.209Z,100656.89
2018-10-07T15:33:57.914Z,100644.97
2018-10-07T15:36:25.696Z,100654.08
2018-10-07T15:38:53.373Z,100642.34
2018-10-07T15:41:21.087Z,100640.66
2018-10-07T15:43:48.729Z,100646.23
2018-10-07T15:46:16.434Z,100649.69
2018-10-07T15:48:44.200Z,100649.38
2018-10-07T15:51:12.021Z,100650.67
2018-10-07T15:53:39.762Z,100656.78
2018-10-07T15:56:07.508Z,100652.33
2018-10-07T15:58:35.204Z,100661.55
2018-10-07T16:01:02.941Z,100667.66
2018-10-07T16:03:30.688Z,100670.60
2018-10-07T16:05:58.372Z,100668.66
2018-10-07T16:08:26.008Z,100675.72
2018-10-07T16:10:53.750Z,100674.35
2018-10-07T16:13:21.364Z,100679.52
2018-10-07T16:15:49.076Z,100685.52
2018-10-07T16:18:16.806Z,100702.13
2018-10-07T16:20:44.487Z,100699.50
2018-10-07T16:23:12.113Z,100704.34
2018-10-07T16:25:39.822Z,100703.53
2018-10-07T16:28:07.508Z,100703.47
2018-10-07T16:30:35.136Z,100713.16
2018-10-07T16:33:02.837Z,100721.16
2018-10-07T16:35:30.489Z,100718.32
2018-10-07T16:37:58.149Z,100721.45
2018-10-07T16:40:25.866Z,100727.34
2018-10-07T16:42:53.585Z,100730.81
2018-10-07T16:45:21.309Z,100738.08
2018-10-07T16:47:49.002Z,100739.36
2018-10-07T16:50:16.672Z,100739.53
2018-10-07T16:52:49.241Z,100734.50
2018-10-07T16:55:17.065Z,100750.42
2018-10-07T16:57:44.856Z,100748.14
2018-10-07T17:00:12.529Z,100754.92
2018-10-07T17:02:40.293Z,100755.16
2018-10-07T17:05:08.017Z,100757.06
2018-10-07T17:07:35.781Z,100766.59
2018-10-07T17:10:03.620Z,100768.41
2018-10-07T17:12:31.365Z,100769.28
2018-10-07T17:14:59.032Z,100775.59
2018-10-07T17:17:26.865Z,100779.72
2018-10-07T17:19:54.553Z,100775.21
2018-10-07T17:22:22.273Z,100775.69
2018-10-07T17:24:50.015Z,100784.41
2018-10-07T17:27:17.723Z,100782.97
2018-10-07T17:29:45.433Z,100784.74
2018-10-07T17:32:13.108Z,100786.59
2018-10-07T17:34:40.769Z,100791.99
2018-10-07T17:37:08.469Z,100800.81
2018-10-07T17:39:36.209Z,100802.00
2018-10-07T17:42:03.886Z,100806.37
2018-10-07T17:44:31.589Z,100811.25
2018-10-07T17:46:59.247Z,100814.64
2018-10-07T17:49:26.923Z,100818.36
2018-10-07T17:51:54.621Z,100824.49
2018-10-07T17:54:22.300Z,100830.45
2018-10-07T17:56:49.974Z,100828.00
2018-10-07T17:59:17.669Z,100837.17
2018-10-07T18:01:45.357Z,100830.45
2018-10-07T18:04:13.093Z,100838.38
2018-10-07T18:06:40.917Z,100841.70
2018-10-07T18:09:09.189Z,100853.38
2018-10-07T18:11:37.019Z,100845.64
2018-10-07T18:14:04.818Z,100847.73
2018-10-07T18:16:32.544Z,100851.42
2018-10-07T18:19:00.287Z,100850.59
2018-10-07T18:21:28.800Z,100847.88
2018-10-07T18:23:56.639Z,100856.11
2018-10-07T18:26:24.405Z,100857.33
2018-10-07T18:28:52.141Z,100863.53
2018-10-07T18:31:19.936Z,100865.70
2018-10-07T18:33:47.716Z,100867.20
2018-10-07T18:36:15.417Z,100859.56
2018-10-07T18:38:43.101Z,100861.98
2018-10-07T18:41:10.834Z,100867.39
2018-10-07T18:43:39.449Z,100870.38
2018-10-07T18:46:07.146Z,100874.61
2018-10-07T18:48:35.338Z,100880.22
2018-10-07T18:51:03.296Z,100876.60
2018-10-07T18:53:31.017Z,100876.52
2018-10-07T18:55:58.708Z,100883.09
2018-10-07T18:58:26.400Z,100883.62
2018-10-07T19:00:54.081Z,100881.41
2018-10-07T19:03:21.748Z,100889.75
2018-10-07T19:05:49.497Z,100892.58
2018-10-07T19:08:17.269Z,100891.31
2018-10-07T19:10:44.943Z,100894.11
2018-10-07T19:13:12.565Z,100898.38
2018-10-07T19:15:40.796Z,100904.20
2018-10-07T19:18:08.453Z,100898.00
2018-10-07T19:20:36.270Z,100901.08
2018-10-07T19:23:04.009Z,100905.97
2018-10-07T19:25:31.686Z,100904.94
2018-10-07T19:27:59.430Z,100910.86
2018-10-07T19:30:27.764Z,100908.90
2018-10-07T19:32:55.457Z,100911.73
2018-10-07T19:35:23.213Z,100905.72
2018-10-07T19:37:50.898Z,100912.27
2018-10-07T19:40:18.561Z,100923.84
2018-10-07T19:42:46.456Z,100930.00
2018-10-07T19:45:14.195Z,100925.95
2018-10-07T19:47:44.312Z,100924.67
2018-10-07T19:50:12.085Z,100922.27
2018-10-07T19:52:39.849Z,100927.95
2018-10-07T19:55:07.489Z,100930.41
2018-10-07T19:57:35.182Z,100921.81
2018-10-07T20:00:03.041Z,100922.81
2018-10-07T20:02:30.692Z,100926.47
2018-10-07T20:04:58.423Z,100923.49
2018-10-07T20:07:26.305Z,100930.57
2018-10-07T20:09:53.985Z,100925.69
2018-10-07T20:12:21.746Z,100928.89
2018-10-07T20:14:53.608Z,100937.11
2018-10-07T20:17:21.399Z,100934.13
2018-10-07T20:19:49.096Z,100948.87
2018-10-07T20:22:17.305Z,100952.15
2018-10-07T20:24:45.174Z,100943.55
2018-10-07T20:27:12.971Z,100950.92
2018-10-07T20:29:41.222Z,100957.09
2018-10-07T20:32:09.076Z,100965.43
2018-10-07T20:34:37.547Z,100967.80
2018-10-07T20:37:05.537Z,100967.20
2018-10-07T20:39:33.336Z,100963.69
2018-10-07T20:44:57.594Z,100972.99
2018-10-07T20:47:25.743Z,100977.09
2018-10-07T20:49:54.821Z,100974.89
2018-10-07T20:52:25.317Z,100974.52
2018-10-07T20:54:52.956Z,100975.05
2018-10-07T20:57:28.952Z,100979.81
2018-10-07T20:59:59.480Z,100970.02
2018-10-07T21:02:27.736Z,100967.73
2018-10-07T21:04:58.173Z,100971.66
2018-10-07T21:07:32.701Z,100970.98
2018-10-07T21:10:01.352Z,100978.04
2018-10-07T21:12:29.564Z,100975.27
2018-10-07T21:15:03.644Z,100976.59
2018-10-07T21:17:33.265Z,100969.05
2018-10-07T21:20:03.915Z,100980.16
2018-10-07T21:22:31.964Z,100979.53
2018-10-07T21:24:59.787Z,100978.76
2018-10-07T21:27:28.631Z,100970.36
2018-10-07T21:29:57.039Z,100973.72
2018-10-07T21:32:25.037Z,100977.35
2018-10-07T21:34:55.201Z,100970.11
2018-10-07T21:37:23.136Z,100972.70
2018-10-07T21:39:51.001Z,100977.75
2018-10-07T21:42:19.030Z,100979.13
2018-10-07T21:44:47.212Z,100976.47
2018-10-07T21:47:16.719Z,100978.42
2018-10-07T21:49:44.492Z,100971.34
2018-10-07T21:52:16.730Z,100980.23
2018-10-07T21:54:45.041Z,100981.60
2018-10-07T21:57:12.781Z,100986.48
2018-10-07T21:59:40.653Z,100979.87
2018-10-07T22:02:08.389Z,100977.66
2018-10-07T22:04:37.396Z,100981.05
2018-10-07T22:07:05.257Z,100982.95
2018-10-07T22:09:32.970Z,100978.80
2018-10-07T22:12:00.628Z,100977.27
2018-10-07T22:14:28.353Z,100976.05
2018-10-07T22:16:56.073Z,100978.70
2018-10-07T22:19:23.782Z,100972.53
2018-10-07T22:21:51.513Z,100970.62
2018-10-07T22:24:19.262Z,100973.07
2018-10-07T22:26:47.004Z,100968.20
2018-10-07T22:29:14.713Z,100962.64
2018-10-07T22:31:42.436Z,100959.61
2018-10-07T22:34:13.424Z,100956.91
2018-10-07T22:36:41.138Z,100956.05
2018-10-07T22:39:08.913Z,100950.62
2018-10-07T22:41:36.813Z,100954.30
2018-10-07T22:44:04.625Z,100956.06
2018-10-07T22:46:32.369Z,100959.69
2018-10-07T22:49:00.340Z,100956.65
2018-10-07T22:51:28.086Z,100948.38
2018-10-07T22:53:55.835Z,100950.44
2018-10-07T22:56:23.505Z,100956.55
2018-10-07T22:58:51.269Z,100948.27
2018-10-07T23:01:18.977Z,100951.64
2018-10-07T23:03:46.636Z,100958.58
2018-10-07T23:06:14.269Z,100952.58
2018-10-07T23:08:42.061Z,100953.97
2018-10-07T23:11:09.680Z,100946.44
2018-10-07T23:13:37.392Z,100954.66
2018-10-07T23:16:05.161Z,100953.13
2018-10-07T23:18:32.881Z,100951.94
2018-10-07T23:21:00.693Z,100954.65
2018-10-07T23:23:28.393Z,100962.63
2018-10-07T23:25:56.133Z,100961.09
2018-10-07T23:28:23.890Z,100959.42
2018-10-07T23:30:51.670Z,100955.63
2018-10-07T23:33:19.301Z,100958.29
2018-10-07T23:35:47.033Z,100961.12
2018-10-07T23:38:14.880Z,100957.91
2018-10-07T23:40:43.704Z,100951.37
2018-10-07T23:43:11.396Z,100953.83
2018-10-07T23:45:39.190Z,100949.59
2018-10-07T23:48:06.892Z,100946.06
2018-10-07T23:50:34.653Z,100947.56
2018-10-07T23:53:02.350Z,100946.80
2018-10-07T23:55:30.064Z,100948.09
2018-10-07T23:57:57.725Z,100955.20
